SKW420 KLAX-KSFO
Flight info
| Callsign | SKW420 |
|---|---|
| Flight time | 0h 52m |
| Altitude | 26000 |
| Route | SUMMR2 STOKD SERFR SERFR4 |
| Aircraft | CRJ7/M-SDFGIRWY/S |
Departure
| Time | 2026-04-20 22:51 |
|---|---|
| Airport | Los Angeles International Airport (KLAX) |
Arrival
| Time | 2026-04-20 23:43 |
|---|---|
| Airport | San Francisco International Airport (KSFO) |
| Time | Latitude | Longitude | Altitude | Speed | Heading |
|---|---|---|---|---|---|
| 2026-04-20 22:38 | 33.94641 | -118.40645 | 93 ft | 0 kts | 263° |
| 2026-04-20 22:42 | 33.94642 | -118.40629 | 93 ft | 4 kts | 262° |
| 2026-04-20 22:42 | 33.94645 | -118.40598 | 95 ft | 3 kts | 269° |
| 2026-04-20 22:43 | 33.94641 | -118.40586 | 93 ft | 2 kts | 337° |
| 2026-04-20 22:43 | 33.94632 | -118.40583 | 93 ft | 0 kts | 352° |
| 2026-04-20 22:44 | 33.94645 | -118.40586 | 95 ft | 3 kts | 352° |
| 2026-04-20 22:44 | 33.94672 | -118.40590 | 95 ft | 5 kts | 352° |
| 2026-04-20 22:45 | 33.94698 | -118.40593 | 95 ft | 3 kts | 355° |
| 2026-04-20 22:45 | 33.94713 | -118.40595 | 95 ft | 2 kts | 355° |
| 2026-04-20 22:45 | 33.94732 | -118.40595 | 96 ft | 5 kts | 6° |
| 2026-04-20 22:45 | 33.94755 | -118.40592 | 94 ft | 2 kts | 3° |
| 2026-04-20 22:46 | 33.94769 | -118.40592 | 94 ft | 2 kts | 358° |
| 2026-04-20 22:46 | 33.94802 | -118.40595 | 97 ft | 12 kts | 353° |
| 2026-04-20 22:46 | 33.94863 | -118.40560 | 99 ft | 9 kts | 68° |
| 2026-04-20 22:46 | 33.94875 | -118.40479 | 98 ft | 10 kts | 82° |
| 2026-04-20 22:47 | 33.94885 | -118.40389 | 98 ft | 16 kts | 83° |
| 2026-04-20 22:47 | 33.94904 | -118.40202 | 100 ft | 24 kts | 83° |
| 2026-04-20 22:47 | 33.94920 | -118.40038 | 97 ft | 18 kts | 83° |
| 2026-04-20 22:47 | 33.94953 | -118.39924 | 100 ft | 4 kts | 32° |
| 2026-04-20 22:49 | 33.94956 | -118.39922 | 100 ft | 9 kts | 31° |
| 2026-04-20 22:49 | 33.95035 | -118.39934 | 107 ft | 11 kts | 300° |
| 2026-04-20 22:49 | 33.95040 | -118.39973 | 107 ft | 0 kts | 265° |
| 2026-04-20 22:50 | 33.95036 | -118.40013 | 107 ft | 21 kts | 263° |
| 2026-04-20 22:50 | 33.94985 | -118.40508 | 108 ft | 100 kts | 263° |
| 2026-04-20 22:50 | 33.94872 | -118.41605 | 181 ft | 157 kts | 263° |
| 2026-04-20 22:51 | 33.94727 | -118.42910 | 1125 ft | 157 kts | 261° |
| 2026-04-20 22:51 | 33.94552 | -118.44251 | 1959 ft | 168 kts | 260° |
| 2026-04-20 22:51 | 33.94433 | -118.45738 | 2651 ft | 190 kts | 263° |
| 2026-04-20 22:51 | 33.94322 | -118.47435 | 3117 ft | 224 kts | 263° |
| 2026-04-20 22:52 | 33.94224 | -118.49402 | 4062 ft | 239 kts | 265° |
| 2026-04-20 22:52 | 33.94149 | -118.51541 | 4655 ft | 272 kts | 265° |
| 2026-04-20 22:52 | 33.94020 | -118.53898 | 5472 ft | 291 kts | 263° |
| 2026-04-20 22:52 | 33.93858 | -118.56298 | 6748 ft | 285 kts | 263° |
| 2026-04-20 22:53 | 33.93681 | -118.58593 | 8369 ft | 268 kts | 261° |
| 2026-04-20 22:53 | 33.93484 | -118.60838 | 9489 ft | 274 kts | 261° |
| 2026-04-20 22:53 | 33.93271 | -118.63186 | 10203 ft | 291 kts | 261° |
| 2026-04-20 22:53 | 33.93050 | -118.65659 | 11012 ft | 300 kts | 261° |
| 2026-04-20 22:54 | 33.92840 | -118.68179 | 11912 ft | 309 kts | 262° |
| 2026-04-20 22:54 | 33.92625 | -118.70866 | 12240 ft | 337 kts | 261° |
| 2026-04-20 22:54 | 33.92399 | -118.73717 | 13071 ft | 341 kts | 262° |
| 2026-04-20 22:54 | 33.92179 | -118.76601 | 13661 ft | 353 kts | 262° |
| 2026-04-20 22:55 | 33.91941 | -118.79606 | 14102 ft | 364 kts | 262° |
| 2026-04-20 22:55 | 33.91693 | -118.82657 | 14752 ft | 368 kts | 262° |
| 2026-04-20 22:55 | 33.91617 | -118.85735 | 15600 ft | 366 kts | 268° |
| 2026-04-20 22:55 | 33.91737 | -118.88792 | 16329 ft | 369 kts | 270° |
| 2026-04-20 22:56 | 33.91907 | -118.91896 | 16858 ft | 375 kts | 270° |
| 2026-04-20 22:56 | 33.92066 | -118.95044 | 17501 ft | 376 kts | 270° |
| 2026-04-20 22:56 | 33.92187 | -118.98160 | 18386 ft | 371 kts | 269° |
| 2026-04-20 22:56 | 33.92455 | -119.01244 | 18723 ft | 384 kts | 282° |
| 2026-04-20 22:57 | 33.93450 | -119.04299 | 19211 ft | 391 kts | 294° |
| 2026-04-20 22:57 | 33.94811 | -119.07102 | 19840 ft | 392 kts | 300° |
| 2026-04-20 22:57 | 33.96330 | -119.09823 | 20536 ft | 390 kts | 301° |
| 2026-04-20 22:57 | 33.97878 | -119.12559 | 20811 ft | 399 kts | 301° |
| 2026-04-20 22:58 | 33.99385 | -119.15361 | 21339 ft | 399 kts | 299° |
| 2026-04-20 22:58 | 34.00907 | -119.18162 | 21823 ft | 403 kts | 307° |
| 2026-04-20 22:58 | 34.02947 | -119.20514 | 22284 ft | 409 kts | 319° |
| 2026-04-20 22:58 | 34.05261 | -119.22532 | 22756 ft | 412 kts | 323° |
| 2026-04-20 22:59 | 34.07652 | -119.24452 | 23217 ft | 414 kts | 324° |
| 2026-04-20 22:59 | 34.09247 | -119.25724 | 23505 ft | 415 kts | 323° |
| 2026-04-20 22:59 | 34.11634 | -119.27693 | 23872 ft | 416 kts | 322° |
| 2026-04-20 22:59 | 34.13993 | -119.29731 | 24256 ft | 417 kts | 321° |
| 2026-04-20 23:00 | 34.16352 | -119.31779 | 24631 ft | 418 kts | 322° |
| 2026-04-20 23:00 | 34.18725 | -119.33826 | 24992 ft | 419 kts | 322° |
| 2026-04-20 23:00 | 34.21103 | -119.35877 | 25345 ft | 421 kts | 322° |
| 2026-04-20 23:00 | 34.23486 | -119.37934 | 25686 ft | 422 kts | 322° |
| 2026-04-20 23:01 | 34.25883 | -119.40005 | 25886 ft | 427 kts | 322° |
| 2026-04-20 23:01 | 34.28317 | -119.42109 | 25981 ft | 434 kts | 322° |
| 2026-04-20 23:01 | 34.30794 | -119.44251 | 26026 ft | 442 kts | 322° |
| 2026-04-20 23:01 | 34.33319 | -119.46436 | 26050 ft | 450 kts | 322° |
| 2026-04-20 23:02 | 34.35891 | -119.48662 | 26065 ft | 458 kts | 322° |
| 2026-04-20 23:02 | 34.38501 | -119.50919 | 26062 ft | 466 kts | 322° |
| 2026-04-20 23:02 | 34.41120 | -119.53267 | 26086 ft | 468 kts | 318° |
| 2026-04-20 23:02 | 34.43497 | -119.55893 | 26072 ft | 459 kts | 313° |
| 2026-04-20 23:03 | 34.45690 | -119.58666 | 26072 ft | 454 kts | 311° |
| 2026-04-20 23:03 | 34.47845 | -119.61452 | 26085 ft | 452 kts | 311° |
| 2026-04-20 23:03 | 34.50015 | -119.64233 | 26060 ft | 455 kts | 311° |
| 2026-04-20 23:03 | 34.52233 | -119.66985 | 26082 ft | 456 kts | 312° |
| 2026-04-20 23:04 | 34.54464 | -119.69726 | 26072 ft | 457 kts | 312° |
| 2026-04-20 23:04 | 34.56700 | -119.72481 | 26062 ft | 458 kts | 312° |
| 2026-04-20 23:04 | 34.58933 | -119.75244 | 26063 ft | 459 kts | 312° |
| 2026-04-20 23:04 | 34.61144 | -119.77978 | 26041 ft | 459 kts | 312° |
| 2026-04-20 23:05 | 34.63383 | -119.80745 | 26045 ft | 459 kts | 312° |
| 2026-04-20 23:05 | 34.65626 | -119.83518 | 26033 ft | 460 kts | 312° |
| 2026-04-20 23:05 | 34.67870 | -119.86296 | 26036 ft | 460 kts | 312° |
| 2026-04-20 23:05 | 34.70117 | -119.89084 | 26043 ft | 461 kts | 312° |
| 2026-04-20 23:06 | 34.72364 | -119.91872 | 26049 ft | 461 kts | 312° |
| 2026-04-20 23:06 | 34.74613 | -119.94662 | 26034 ft | 462 kts | 312° |
| 2026-04-20 23:06 | 34.76864 | -119.97457 | 26027 ft | 462 kts | 312° |
| 2026-04-20 23:06 | 34.79079 | -120.00213 | 26027 ft | 462 kts | 312° |
| 2026-04-20 23:07 | 34.81324 | -120.03006 | 26027 ft | 462 kts | 312° |
| 2026-04-20 23:07 | 34.83577 | -120.05811 | 26031 ft | 462 kts | 311° |
| 2026-04-20 23:07 | 34.85837 | -120.08598 | 26028 ft | 462 kts | 312° |
| 2026-04-20 23:07 | 34.88101 | -120.11387 | 26024 ft | 462 kts | 312° |
| 2026-04-20 23:08 | 34.90349 | -120.14185 | 26039 ft | 463 kts | 311° |
| 2026-04-20 23:08 | 34.92592 | -120.16994 | 26032 ft | 463 kts | 311° |
| 2026-04-20 23:08 | 34.94841 | -120.19804 | 26025 ft | 463 kts | 311° |
| 2026-04-20 23:08 | 34.97088 | -120.22615 | 26027 ft | 463 kts | 311° |
| 2026-04-20 23:09 | 34.99336 | -120.25427 | 26034 ft | 463 kts | 311° |
| 2026-04-20 23:09 | 35.01587 | -120.28245 | 26023 ft | 463 kts | 311° |
| 2026-04-20 23:09 | 35.03827 | -120.31064 | 26028 ft | 463 kts | 311° |
| 2026-04-20 23:09 | 35.06065 | -120.33883 | 26033 ft | 463 kts | 311° |
| 2026-04-20 23:10 | 35.08293 | -120.36682 | 25885 ft | 466 kts | 311° |
| 2026-04-20 23:10 | 35.10602 | -120.39451 | 25951 ft | 465 kts | 314° |
| 2026-04-20 23:10 | 35.13004 | -120.42119 | 26007 ft | 465 kts | 315° |
| 2026-04-20 23:10 | 35.15426 | -120.44752 | 26038 ft | 465 kts | 315° |
| 2026-04-20 23:11 | 35.17841 | -120.47381 | 26037 ft | 464 kts | 315° |
| 2026-04-20 23:11 | 35.20219 | -120.50045 | 26053 ft | 464 kts | 314° |
| 2026-04-20 23:11 | 35.22598 | -120.52710 | 26032 ft | 464 kts | 314° |
| 2026-04-20 23:11 | 35.24977 | -120.55384 | 26047 ft | 464 kts | 314° |
| 2026-04-20 23:12 | 35.27352 | -120.58058 | 26062 ft | 465 kts | 314° |
| 2026-04-20 23:12 | 35.29734 | -120.60737 | 26068 ft | 465 kts | 314° |
| 2026-04-20 23:12 | 35.32089 | -120.63387 | 26064 ft | 466 kts | 314° |
| 2026-04-20 23:12 | 35.34473 | -120.66075 | 26066 ft | 466 kts | 314° |
| 2026-04-20 23:13 | 35.36860 | -120.68772 | 26064 ft | 467 kts | 314° |
| 2026-04-20 23:13 | 35.39250 | -120.71466 | 26070 ft | 467 kts | 314° |
| 2026-04-20 23:13 | 35.41670 | -120.74202 | 26066 ft | 468 kts | 314° |
| 2026-04-20 23:13 | 35.44061 | -120.76908 | 26052 ft | 468 kts | 314° |
| 2026-04-20 23:14 | 35.46456 | -120.79611 | 26039 ft | 468 kts | 314° |
| 2026-04-20 23:14 | 35.48865 | -120.82301 | 26050 ft | 468 kts | 315° |
| 2026-04-20 23:14 | 35.51367 | -120.84797 | 26059 ft | 471 kts | 319° |
| 2026-04-20 23:14 | 35.54011 | -120.87174 | 26056 ft | 472 kts | 320° |
| 2026-04-20 23:15 | 35.56671 | -120.89526 | 26059 ft | 472 kts | 320° |
| 2026-04-20 23:15 | 35.59312 | -120.91924 | 26055 ft | 472 kts | 319° |
| 2026-04-20 23:15 | 35.61921 | -120.94364 | 26035 ft | 471 kts | 319° |
| 2026-04-20 23:15 | 35.64539 | -120.96795 | 26034 ft | 471 kts | 319° |
| 2026-04-20 23:16 | 35.67155 | -120.99229 | 26039 ft | 471 kts | 319° |
| 2026-04-20 23:16 | 35.69763 | -121.01663 | 26036 ft | 471 kts | 319° |
| 2026-04-20 23:16 | 35.72372 | -121.04095 | 26038 ft | 471 kts | 319° |
| 2026-04-20 23:16 | 35.74987 | -121.06534 | 26043 ft | 471 kts | 319° |
| 2026-04-20 23:17 | 35.77598 | -121.08971 | 26044 ft | 471 kts | 319° |
| 2026-04-20 23:17 | 35.80210 | -121.11418 | 26034 ft | 472 kts | 319° |
| 2026-04-20 23:17 | 35.82822 | -121.13858 | 26044 ft | 472 kts | 319° |
| 2026-04-20 23:17 | 35.85440 | -121.16307 | 26042 ft | 472 kts | 318° |
| 2026-04-20 23:18 | 35.88058 | -121.18760 | 26040 ft | 473 kts | 318° |
| 2026-04-20 23:18 | 35.90676 | -121.21215 | 26037 ft | 473 kts | 319° |
| 2026-04-20 23:18 | 35.93259 | -121.23639 | 26034 ft | 473 kts | 319° |
| 2026-04-20 23:18 | 35.95880 | -121.26106 | 26032 ft | 474 kts | 318° |
| 2026-04-20 23:19 | 35.98503 | -121.28568 | 26027 ft | 474 kts | 318° |
| 2026-04-20 23:19 | 36.01126 | -121.31044 | 26026 ft | 474 kts | 318° |
| 2026-04-20 23:19 | 36.03764 | -121.33529 | 25581 ft | 474 kts | 318° |
| 2026-04-20 23:19 | 36.06332 | -121.35938 | 25165 ft | 454 kts | 318° |
| 2026-04-20 23:20 | 36.08811 | -121.38257 | 24775 ft | 439 kts | 318° |
| 2026-04-20 23:20 | 36.11213 | -121.40489 | 24417 ft | 425 kts | 318° |
| 2026-04-20 23:20 | 36.13549 | -121.42649 | 24071 ft | 414 kts | 318° |
| 2026-04-20 23:20 | 36.15826 | -121.44747 | 23748 ft | 404 kts | 318° |
| 2026-04-20 23:21 | 36.18057 | -121.46790 | 23396 ft | 396 kts | 318° |
| 2026-04-20 23:21 | 36.20275 | -121.48829 | 22929 ft | 400 kts | 318° |
| 2026-04-20 23:21 | 36.22524 | -121.50900 | 22557 ft | 405 kts | 318° |
| 2026-04-20 23:21 | 36.24799 | -121.52986 | 22134 ft | 409 kts | 318° |
| 2026-04-20 23:22 | 36.27094 | -121.55099 | 21754 ft | 413 kts | 318° |
| 2026-04-20 23:22 | 36.29412 | -121.57237 | 21364 ft | 416 kts | 319° |
| 2026-04-20 23:22 | 36.31705 | -121.59350 | 20999 ft | 406 kts | 318° |
| 2026-04-20 23:22 | 36.33944 | -121.61407 | 20644 ft | 396 kts | 318° |
| 2026-04-20 23:23 | 36.36137 | -121.63417 | 20305 ft | 387 kts | 318° |
| 2026-04-20 23:23 | 36.38285 | -121.65376 | 19996 ft | 378 kts | 318° |
| 2026-04-20 23:23 | 36.40372 | -121.67248 | 20011 ft | 363 kts | 319° |
| 2026-04-20 23:23 | 36.42412 | -121.69032 | 19753 ft | 358 kts | 321° |
| 2026-04-20 23:24 | 36.44549 | -121.70612 | 19443 ft | 358 kts | 326° |
| 2026-04-20 23:24 | 36.46788 | -121.72027 | 19110 ft | 369 kts | 328° |
| 2026-04-20 23:24 | 36.49171 | -121.73487 | 18786 ft | 394 kts | 329° |
| 2026-04-20 23:24 | 36.51648 | -121.75017 | 18600 ft | 394 kts | 329° |
| 2026-04-20 23:25 | 36.54109 | -121.76530 | 18613 ft | 396 kts | 329° |
| 2026-04-20 23:25 | 36.56547 | -121.78069 | 18581 ft | 389 kts | 328° |
| 2026-04-20 23:25 | 36.58899 | -121.79577 | 18588 ft | 372 kts | 328° |
| 2026-04-20 23:25 | 36.61147 | -121.81027 | 18589 ft | 356 kts | 327° |
| 2026-04-20 23:26 | 36.63329 | -121.82446 | 18207 ft | 357 kts | 327° |
| 2026-04-20 23:26 | 36.65546 | -121.83863 | 17720 ft | 357 kts | 328° |
| 2026-04-20 23:26 | 36.67744 | -121.85285 | 17328 ft | 355 kts | 328° |
| 2026-04-20 23:26 | 36.69936 | -121.86696 | 16938 ft | 354 kts | 328° |
| 2026-04-20 23:27 | 36.72120 | -121.88103 | 16552 ft | 352 kts | 328° |
| 2026-04-20 23:27 | 36.74289 | -121.89516 | 15974 ft | 356 kts | 328° |
| 2026-04-20 23:27 | 36.76528 | -121.90998 | 14982 ft | 372 kts | 328° |
| 2026-04-20 23:27 | 36.78792 | -121.92525 | 14393 ft | 374 kts | 328° |
| 2026-04-20 23:28 | 36.81073 | -121.94075 | 13912 ft | 373 kts | 328° |
| 2026-04-20 23:28 | 36.83343 | -121.95629 | 13391 ft | 370 kts | 328° |
| 2026-04-20 23:28 | 36.85590 | -121.97173 | 12873 ft | 367 kts | 328° |
| 2026-04-20 23:28 | 36.87774 | -121.98790 | 12354 ft | 362 kts | 321° |
| 2026-04-20 23:29 | 36.89776 | -122.00664 | 11868 ft | 357 kts | 318° |
| 2026-04-20 23:29 | 36.91721 | -122.02578 | 11369 ft | 354 kts | 317° |
| 2026-04-20 23:29 | 36.93635 | -122.04488 | 10897 ft | 351 kts | 317° |
| 2026-04-20 23:29 | 36.95536 | -122.06393 | 10400 ft | 348 kts | 316° |
| 2026-04-20 23:30 | 36.97391 | -122.08254 | 10249 ft | 335 kts | 316° |
| 2026-04-20 23:30 | 36.99182 | -122.10038 | 10136 ft | 322 kts | 316° |
| 2026-04-20 23:30 | 37.00910 | -122.11749 | 10010 ft | 313 kts | 316° |
| 2026-04-20 23:30 | 37.02611 | -122.13424 | 9689 ft | 310 kts | 316° |
| 2026-04-20 23:31 | 37.04303 | -122.15090 | 9366 ft | 308 kts | 317° |
| 2026-04-20 23:31 | 37.05981 | -122.16749 | 9013 ft | 306 kts | 317° |
| 2026-04-20 23:31 | 37.07645 | -122.18395 | 8656 ft | 304 kts | 316° |
| 2026-04-20 23:31 | 37.09304 | -122.20036 | 8306 ft | 302 kts | 317° |
| 2026-04-20 23:32 | 37.10947 | -122.21665 | 7934 ft | 301 kts | 317° |
| 2026-04-20 23:32 | 37.12581 | -122.23292 | 7567 ft | 299 kts | 317° |
| 2026-04-20 23:32 | 37.14197 | -122.24910 | 7235 ft | 296 kts | 316° |
| 2026-04-20 23:32 | 37.15799 | -122.26524 | 6880 ft | 295 kts | 317° |
| 2026-04-20 23:33 | 37.17390 | -122.28132 | 6549 ft | 292 kts | 317° |
| 2026-04-20 23:33 | 37.18935 | -122.29715 | 6239 ft | 287 kts | 316° |
| 2026-04-20 23:33 | 37.20484 | -122.31215 | 6097 ft | 278 kts | 327° |
| 2026-04-20 23:33 | 37.22297 | -122.31926 | 6073 ft | 269 kts | 348° |
| 2026-04-20 23:34 | 37.24068 | -122.32460 | 6054 ft | 255 kts | 339° |
| 2026-04-20 23:34 | 37.25688 | -122.33256 | 6012 ft | 253 kts | 330° |
| 2026-04-20 23:34 | 37.27480 | -122.33917 | 6033 ft | 284 kts | 358° |
| 2026-04-20 23:34 | 37.29358 | -122.33329 | 6073 ft | 283 kts | 32° |
| 2026-04-20 23:35 | 37.30728 | -122.31592 | 6113 ft | 280 kts | 66° |
| 2026-04-20 23:35 | 37.31560 | -122.26879 | 6171 ft | 287 kts | 76° |
| 2026-04-20 23:35 | 37.32314 | -122.24534 | 6189 ft | 294 kts | 70° |
| 2026-04-20 23:36 | 37.33184 | -122.22176 | 6209 ft | 301 kts | 69° |
| 2026-04-20 23:36 | 37.34106 | -122.19784 | 6163 ft | 303 kts | 68° |
| 2026-04-20 23:36 | 37.35035 | -122.17505 | 6144 ft | 284 kts | 68° |
| 2026-04-20 23:36 | 37.35921 | -122.15347 | 6132 ft | 272 kts | 67° |
| 2026-04-20 23:37 | 37.37042 | -122.13414 | 5780 ft | 284 kts | 40° |
| 2026-04-20 23:37 | 37.38854 | -122.12381 | 5439 ft | 293 kts | 8° |
| 2026-04-20 23:37 | 37.40863 | -122.12574 | 5132 ft | 290 kts | 342° |
| 2026-04-20 23:37 | 37.42780 | -122.13319 | 4819 ft | 286 kts | 338° |
| 2026-04-20 23:38 | 37.44652 | -122.14100 | 4507 ft | 281 kts | 339° |
| 2026-04-20 23:38 | 37.46490 | -122.14862 | 4178 ft | 277 kts | 339° |
| 2026-04-20 23:38 | 37.48281 | -122.15565 | 3878 ft | 273 kts | 340° |
| 2026-04-20 23:38 | 37.50117 | -122.16286 | 3584 ft | 269 kts | 340° |
| 2026-04-20 23:39 | 37.51864 | -122.16970 | 3311 ft | 266 kts | 340° |
| 2026-04-20 23:39 | 37.53628 | -122.17665 | 2989 ft | 263 kts | 339° |
| 2026-04-20 23:39 | 37.55214 | -122.18690 | 2693 ft | 250 kts | 314° |
| 2026-04-20 23:39 | 37.56117 | -122.20389 | 2418 ft | 223 kts | 287° |
| 2026-04-20 23:40 | 37.56652 | -122.22155 | 2136 ft | 210 kts | 284° |
| 2026-04-20 23:40 | 37.57097 | -122.23765 | 1983 ft | 171 kts | 283° |
| 2026-04-20 23:40 | 37.57427 | -122.25032 | 1803 ft | 145 kts | 279° |
| 2026-04-20 23:40 | 37.57707 | -122.26239 | 1559 ft | 144 kts | 278° |
| 2026-04-20 23:41 | 37.57998 | -122.27455 | 1332 ft | 148 kts | 279° |
| 2026-04-20 23:41 | 37.58320 | -122.28648 | 1090 ft | 143 kts | 283° |
| 2026-04-20 23:41 | 37.58684 | -122.29869 | 818 ft | 151 kts | 287° |
| 2026-04-20 23:41 | 37.59125 | -122.31018 | 592 ft | 143 kts | 290° |
| 2026-04-20 23:42 | 37.59572 | -122.32098 | 393 ft | 135 kts | 292° |
| 2026-04-20 23:42 | 37.60025 | -122.33137 | 164 ft | 141 kts | 294° |
| 2026-04-20 23:42 | 37.60589 | -122.34221 | 218 ft | 153 kts | 302° |
| 2026-04-20 23:42 | 37.61168 | -122.35280 | 127 ft | 136 kts | 293° |
| 2026-04-20 23:43 | 37.61612 | -122.36331 | 32 ft | 131 kts | 295° |
| 2026-04-20 23:43 | 37.61958 | -122.37168 | 13 ft | 82 kts | 298° |
| 2026-04-20 23:43 | 37.62167 | -122.37654 | 18 ft | 43 kts | 298° |
| 2026-04-20 23:43 | 37.62213 | -122.37949 | 23 ft | 30 kts | 278° |
| 2026-04-20 23:44 | 37.62231 | -122.38139 | 22 ft | 11 kts | 270° |
| 2026-04-20 23:44 | 37.62213 | -122.38245 | 20 ft | 13 kts | 238° |
| 2026-04-20 23:44 | 37.62142 | -122.38314 | 20 ft | 12 kts | 199° |
| 2026-04-20 23:44 | 37.62074 | -122.38341 | 21 ft | 9 kts | 196° |
| 2026-04-20 23:45 | 37.62021 | -122.38325 | 23 ft | 8 kts | 131° |
| 2026-04-20 23:45 | 37.61991 | -122.38263 | 21 ft | 8 kts | 123° |
| 2026-04-20 23:45 | 37.61957 | -122.38255 | 21 ft | 6 kts | 199° |
| 2026-04-20 23:45 | 37.61922 | -122.38285 | 21 ft | 4 kts | 252° |
| 2026-04-20 23:46 | 37.61916 | -122.38298 | 19 ft | 2 kts | 220° |
| 2026-04-20 23:46 | 37.61911 | -122.38321 | 18 ft | 3 kts | 282° |
| 2026-04-20 23:46 | 37.61916 | -122.38347 | 18 ft | 4 kts | 284° |
| 2026-04-20 23:46 | 37.61918 | -122.38354 | 17 ft | 0 kts | 295° |
| 2026-04-20 23:55 | 37.61918 | -122.38353 | 17 ft | 0 kts | 295° |